createdAt,value
2023-04-15T00:02:19.834Z,98563.70
2023-04-15T00:04:49.219Z,98564.69
2023-04-15T00:07:18.232Z,98567.31
2023-04-15T00:09:57.871Z,98565.94
2023-04-15T00:12:30.209Z,98563.58
2023-04-15T00:15:01.743Z,98563.80
2023-04-15T00:17:33.521Z,98559.77
2023-04-15T00:20:02.711Z,98560.48
2023-04-15T00:22:40.958Z,98559.52
2023-04-15T00:25:09.806Z,98559.80
2023-04-15T00:27:41.438Z,98560.89
2023-04-15T00:30:09.947Z,98562.14
2023-04-15T00:32:44.794Z,98561.13
2023-04-15T00:35:45.359Z,98556.05
2023-04-15T00:38:14.051Z,98557.81
2023-04-15T00:41:05.404Z,98558.52
2023-04-15T00:43:37.385Z,98558.59
2023-04-15T00:46:09.680Z,98559.12
2023-04-15T00:48:39.062Z,98558.27
2023-04-15T00:51:09.830Z,98558.35
2023-04-15T00:53:48.901Z,98561.05
2023-04-15T00:56:22.017Z,98558.65
2023-04-15T00:58:53.741Z,98560.44
2023-04-15T01:01:22.847Z,98561.55
2023-04-15T01:04:09.954Z,98561.88
2023-04-15T01:06:38.269Z,98558.67
2023-04-15T01:09:28.990Z,98563.31
2023-04-15T01:12:00.463Z,98561.47
2023-04-15T01:14:30.901Z,98562.27
2023-04-15T01:16:59.899Z,98562.55
2023-04-15T01:19:31.853Z,98563.52
2023-04-15T01:22:00.624Z,98564.46
2023-04-15T01:24:32.039Z,98564.33
2023-04-15T01:27:00.437Z,98561.96
2023-04-15T01:29:29.456Z,98564.71
2023-04-15T01:31:57.869Z,98563.52
2023-04-15T01:34:35.864Z,98564.97
2023-04-15T01:37:04.693Z,98561.55
2023-04-15T01:39:33.812Z,98564.63
2023-04-15T01:42:02.670Z,98568.82
2023-04-15T01:44:50.245Z,98568.21
2023-04-15T01:47:27.887Z,98568.23
2023-04-15T01:49:56.364Z,98570.20
2023-04-15T01:52:25.516Z,98567.59
2023-04-15T01:54:54.307Z,98564.16
2023-04-15T01:57:22.756Z,98567.90
2023-04-15T01:59:51.344Z,98566.21
2023-04-15T02:02:25.548Z,98570.13
2023-04-15T02:04:53.957Z,98572.30
2023-04-15T02:07:22.838Z,98573.27
2023-04-15T02:09:51.910Z,98577.86
2023-04-15T02:12:20.210Z,98579.63
2023-04-15T02:14:48.956Z,98573.86
2023-04-15T02:17:55.858Z,98576.42
2023-04-15T02:20:44.851Z,98578.45
2023-04-15T02:23:13.407Z,98579.23
2023-04-15T02:25:42.206Z,98581.27
2023-04-15T02:28:22.154Z,98582.75
2023-04-15T02:31:37.115Z,98581.77
2023-04-15T02:34:09.252Z,98583.03
2023-04-15T02:36:40.602Z,98581.46
2023-04-15T02:39:09.099Z,98577.14
2023-04-15T02:41:37.391Z,98574.08
2023-04-15T02:44:07.320Z,98571.98
2023-04-15T02:46:37.958Z,98573.02
2023-04-15T02:49:13.598Z,98574.73
2023-04-15T02:51:49.995Z,98578.29
2023-04-15T02:54:38.643Z,98580.05
2023-04-15T02:57:07.085Z,98580.14
2023-04-15T02:59:35.457Z,98580.50
2023-04-15T03:03:00.671Z,98578.63
2023-04-15T03:05:50.328Z,98576.21
2023-04-15T03:08:24.240Z,98574.58
2023-04-15T03:10:58.280Z,98577.38
2023-04-15T03:13:27.176Z,98577.86
2023-04-15T03:15:58.277Z,98575.73
2023-04-15T03:18:29.021Z,98572.30
2023-04-15T03:20:57.474Z,98574.48
2023-04-15T03:23:26.473Z,98571.70
2023-04-15T03:25:58.557Z,98570.25
2023-04-15T03:28:27.569Z,98572.29
2023-04-15T03:30:56.763Z,98570.65
2023-04-15T03:33:25.641Z,98567.11
2023-04-15T03:35:58.606Z,98571.86
2023-04-15T03:38:31.900Z,98578.39
2023-04-15T03:41:00.574Z,98574.70
2023-04-15T03:43:31.413Z,98575.23
2023-04-15T03:46:01.411Z,98573.15
2023-04-15T03:48:30.307Z,98570.42
2023-04-15T03:51:01.621Z,98574.27
2023-04-15T03:53:52.579Z,98580.08
2023-04-15T03:56:31.177Z,98580.80
2023-04-15T03:59:00.223Z,98578.25
2023-04-15T04:01:29.283Z,98578.27
2023-04-15T04:03:57.628Z,98577.41
2023-04-15T04:06:29.820Z,98575.28
2023-04-15T04:08:58.170Z,98572.15
2023-04-15T04:11:28.393Z,98575.51
2023-04-15T04:13:56.735Z,98573.27
2023-04-15T04:16:32.389Z,98569.29
2023-04-15T04:19:04.140Z,98566.73
2023-04-15T04:21:34.354Z,98567.10
2023-04-15T04:24:03.349Z,98564.91
2023-04-15T04:26:31.756Z,98566.33
2023-04-15T04:29:12.851Z,98570.41
2023-04-15T04:31:43.766Z,98573.36
2023-04-15T04:34:12.493Z,98575.66
2023-04-15T04:36:41.204Z,98578.14
2023-04-15T04:39:09.357Z,98579.66
2023-04-15T04:41:38.038Z,98584.35
2023-04-15T04:44:06.397Z,98592.03
2023-04-15T04:46:34.802Z,98592.92
2023-04-15T04:49:03.560Z,98598.09
2023-04-15T04:51:32.896Z,98598.80
2023-04-15T04:54:04.518Z,98601.77
2023-04-15T04:56:34.493Z,98602.23
2023-04-15T04:59:02.888Z,98604.90
2023-04-15T05:01:31.618Z,98610.06
2023-04-15T05:04:05.580Z,98615.76
2023-04-15T05:06:36.131Z,98615.38
2023-04-15T05:09:04.539Z,98614.85
2023-04-15T05:11:35.804Z,98617.37
2023-04-15T05:14:04.688Z,98618.84
2023-04-15T05:16:35.921Z,98622.58
2023-04-15T05:19:06.790Z,98618.46
2023-04-15T05:21:36.212Z,98615.48
2023-04-15T05:24:05.639Z,98613.70
2023-04-15T05:26:40.698Z,98615.09
2023-04-15T05:29:11.587Z,98614.04
2023-04-15T05:31:40.179Z,98616.30
2023-04-15T05:34:17.866Z,98619.13
2023-04-15T05:36:46.633Z,98617.38
2023-04-15T05:39:16.070Z,98614.81
2023-04-15T05:41:45.540Z,98619.25
2023-04-15T05:44:22.771Z,98622.84
2023-04-15T05:47:10.834Z,98626.64
2023-04-15T05:50:25.148Z,98629.64
2023-04-15T05:52:58.996Z,98632.99
2023-04-15T05:55:45.170Z,98633.10
2023-04-15T05:58:22.474Z,98639.86
2023-04-15T06:00:58.846Z,98637.23
2023-04-15T06:03:27.268Z,98637.59
2023-04-15T06:06:01.721Z,98635.02
2023-04-15T06:08:32.793Z,98639.11
2023-04-15T06:11:01.733Z,98640.40
2023-04-15T06:13:34.224Z,98639.21
2023-04-15T06:16:02.670Z,98641.64
2023-04-15T06:18:35.818Z,98642.67
2023-04-15T06:21:05.157Z,98645.23
2023-04-15T06:23:36.919Z,98647.58
2023-04-15T06:26:06.044Z,98648.21
2023-04-15T06:28:34.821Z,98650.26
2023-04-15T06:31:04.062Z,98651.40
2023-04-15T06:33:40.504Z,98651.27
2023-04-15T06:36:08.847Z,98651.56
2023-04-15T06:38:37.161Z,98652.58
2023-04-15T06:41:05.629Z,98658.77
2023-04-15T06:43:33.981Z,98659.48
2023-04-15T06:46:05.045Z,98660.85
2023-04-15T06:48:33.904Z,98660.46
2023-04-15T06:51:04.913Z,98663.52
2023-04-15T06:53:52.762Z,98669.16
2023-04-15T06:56:34.130Z,98666.89
2023-04-15T06:59:22.993Z,98673.42
2023-04-15T07:01:58.721Z,98675.78
2023-04-15T07:04:28.171Z,98674.44
2023-04-15T07:06:57.204Z,98676.59
2023-04-15T07:09:34.664Z,98680.09
2023-04-15T07:12:03.380Z,98681.70
2023-04-15T07:14:31.997Z,98688.55
2023-04-15T07:17:00.912Z,98683.73
2023-04-15T07:19:29.499Z,98687.71
2023-04-15T07:21:58.030Z,98688.50
2023-04-15T07:24:27.102Z,98690.28
2023-04-15T07:27:01.804Z,98690.34
2023-04-15T07:29:30.602Z,98693.29
2023-04-15T07:31:58.850Z,98693.33
2023-04-15T07:34:27.857Z,98697.02
2023-04-15T07:36:56.487Z,98698.39
2023-04-15T07:39:24.919Z,98705.95
2023-04-15T07:41:53.851Z,98704.42
2023-04-15T07:44:22.705Z,98700.46
2023-04-15T07:46:51.510Z,98700.88
2023-04-15T07:49:21.672Z,98703.62
2023-04-15T07:52:00.271Z,98701.10
2023-04-15T07:54:38.400Z,98702.77
2023-04-15T07:57:08.172Z,98704.46
2023-04-15T07:59:39.808Z,98706.09
2023-04-15T08:02:08.775Z,98709.87
2023-04-15T08:04:46.987Z,98713.25
2023-04-15T08:07:16.670Z,98719.06
2023-04-15T08:09:45.236Z,98722.09
2023-04-15T08:12:16.962Z,98726.98
2023-04-15T08:14:46.145Z,98723.73
2023-04-15T08:17:21.166Z,98728.67
2023-04-15T08:20:02.171Z,98728.84
2023-04-15T08:22:53.742Z,98731.69
2023-04-15T08:25:32.391Z,98727.14
2023-04-15T08:28:14.470Z,98726.23
2023-04-15T08:30:54.101Z,98730.13
2023-04-15T08:33:22.939Z,98733.16
2023-04-15T08:35:57.451Z,98735.38
2023-04-15T08:38:39.858Z,98737.33
2023-04-15T08:41:27.892Z,98739.98
2023-04-15T08:44:04.295Z,98738.54
2023-04-15T08:46:36.663Z,98738.30
2023-04-15T08:49:13.151Z,98743.73
2023-04-15T08:51:44.165Z,98742.69
2023-04-15T08:54:13.476Z,98748.16
2023-04-15T08:56:45.481Z,98744.80
2023-04-15T08:59:15.039Z,98756.38
2023-04-15T09:01:48.063Z,98758.43
2023-04-15T09:04:34.538Z,98758.64
2023-04-15T09:07:08.325Z,98763.77
2023-04-15T09:09:46.365Z,98766.80
2023-04-15T09:12:37.680Z,98770.17
2023-04-15T09:15:19.632Z,98770.27
2023-04-15T09:17:48.945Z,98769.05
2023-04-15T09:20:19.145Z,98770.92
2023-04-15T09:22:58.465Z,98772.98
2023-04-15T09:25:34.839Z,98772.02
2023-04-15T09:28:12.965Z,98774.41
2023-04-15T09:31:10.444Z,98773.88
2023-04-15T09:34:00.117Z,98776.45
2023-04-15T09:37:07.627Z,98775.32
2023-04-15T09:40:06.080Z,98780.69
2023-04-15T09:42:34.696Z,98784.00
2023-04-15T09:45:12.939Z,98783.78
2023-04-15T09:48:17.369Z,98790.23
2023-04-15T09:50:45.991Z,98794.16
2023-04-15T09:53:29.841Z,98793.83
2023-04-15T09:56:04.701Z,98799.55
2023-04-15T09:58:43.438Z,98800.90
2023-04-15T10:01:12.159Z,98800.64
2023-04-15T10:04:05.569Z,98797.35
2023-04-15T10:06:35.010Z,98801.88
2023-04-15T10:09:03.566Z,98802.88
2023-04-15T10:11:40.744Z,98798.32
2023-04-15T10:14:10.952Z,98797.39
2023-04-15T10:16:49.228Z,98801.48
2023-04-15T10:19:20.756Z,98803.59
2023-04-15T10:21:52.814Z,98811.04
2023-04-15T10:24:31.077Z,98818.73
2023-04-15T10:27:41.231Z,98820.54
2023-04-15T10:30:15.549Z,98823.32
2023-04-15T10:32:45.444Z,98825.40
2023-04-15T10:35:14.727Z,98822.73
2023-04-15T10:37:46.215Z,98825.05
2023-04-15T10:40:45.678Z,98827.23
2023-04-15T10:43:28.809Z,98827.73
2023-04-15T10:45:58.176Z,98826.30
2023-04-15T10:48:35.639Z,98831.73
2023-04-15T10:51:18.768Z,98829.38
2023-04-15T10:53:47.483Z,98832.87
2023-04-15T10:56:20.354Z,98834.41
2023-04-15T10:58:48.729Z,98837.81
2023-04-15T11:01:20.605Z,98834.27
2023-04-15T11:04:13.081Z,98834.66
2023-04-15T11:07:09.684Z,98840.69
2023-04-15T11:09:38.087Z,98848.42
2023-04-15T11:12:10.807Z,98853.71
2023-04-15T11:14:54.730Z,98851.73
2023-04-15T11:18:12.506Z,98854.41
2023-04-15T11:20:48.854Z,98855.02
2023-04-15T11:23:51.955Z,98853.52
2023-04-15T11:26:27.270Z,98855.54
2023-04-15T11:29:02.799Z,98855.13
2023-04-15T11:31:32.045Z,98855.02
2023-04-15T11:34:03.642Z,98860.06
2023-04-15T11:36:44.073Z,98860.48
2023-04-15T11:39:17.533Z,98860.83
2023-04-15T11:41:46.004Z,98867.08
2023-04-15T11:44:18.951Z,98862.48
2023-04-15T11:46:50.252Z,98863.86
2023-04-15T11:49:34.546Z,98865.13
2023-04-15T11:52:17.348Z,98864.73
2023-04-15T11:54:52.139Z,98867.80
2023-04-15T11:57:41.288Z,98870.36
2023-04-15T12:00:32.708Z,98876.59
2023-04-15T12:03:25.219Z,98881.13
2023-04-15T12:06:39.887Z,98881.24
2023-04-15T12:09:17.665Z,98882.21
2023-04-15T12:11:48.684Z,98890.46
2023-04-15T12:14:21.320Z,98892.20
2023-04-15T12:17:05.232Z,98895.48
2023-04-15T12:19:45.994Z,98902.66
2023-04-15T12:22:16.670Z,98904.21
2023-04-15T12:24:57.326Z,98907.04
2023-04-15T12:27:29.938Z,98908.38
2023-04-15T12:30:11.925Z,98913.76
2023-04-15T12:32:43.440Z,98915.20
2023-04-15T12:35:15.480Z,98918.41
2023-04-15T12:37:44.514Z,98920.09
2023-04-15T12:40:12.933Z,98921.94
2023-04-15T12:42:41.316Z,98922.59
2023-04-15T12:45:09.843Z,98924.83
2023-04-15T12:47:38.928Z,98925.67
2023-04-15T12:50:51.613Z,98927.61
2023-04-15T12:53:36.748Z,98933.19
2023-04-15T12:56:05.644Z,98935.08
2023-04-15T12:58:34.095Z,98936.30
2023-04-15T13:01:28.260Z,98941.91
2023-04-15T13:04:17.453Z,98943.98
2023-04-15T13:06:46.162Z,98950.94
2023-04-15T13:09:14.729Z,98952.97
2023-04-15T13:12:08.412Z,98953.88
2023-04-15T13:14:55.172Z,98953.02
2023-04-15T13:17:24.032Z,98954.99
2023-04-15T13:20:19.614Z,98958.77
2023-04-15T13:22:53.277Z,98959.48
2023-04-15T13:25:22.484Z,98962.12
2023-04-15T13:27:51.799Z,98962.83
2023-04-15T13:30:21.427Z,98965.75
2023-04-15T13:32:51.561Z,98966.34
2023-04-15T13:35:21.455Z,98968.40
2023-04-15T13:38:10.685Z,98970.64
2023-04-15T13:41:06.920Z,98966.38
2023-04-15T13:43:36.020Z,98971.75
2023-04-15T13:46:04.414Z,98972.20
2023-04-15T13:48:33.309Z,98977.58
2023-04-15T13:51:06.186Z,98972.54
2023-04-15T13:53:38.441Z,98979.94
2023-04-15T13:56:11.722Z,98977.59
2023-04-15T13:58:43.532Z,98980.92
2023-04-15T14:01:21.996Z,98987.59
2023-04-15T14:04:00.282Z,98987.17
2023-04-15T14:06:36.793Z,98989.77
2023-04-15T14:09:14.994Z,98990.45
2023-04-15T14:12:04.432Z,98998.42
2023-04-15T14:14:35.664Z,99000.86
2023-04-15T14:17:04.994Z,98999.30
2023-04-15T14:19:40.459Z,99005.58
2023-04-15T14:22:20.374Z,99006.75
2023-04-15T14:24:49.481Z,99008.40
2023-04-15T14:27:18.006Z,99015.90
2023-04-15T14:29:46.638Z,99015.88
2023-04-15T14:32:17.441Z,99019.77
2023-04-15T14:34:48.686Z,99024.63
2023-04-15T14:37:27.839Z,99028.20
2023-04-15T14:39:58.570Z,99028.09
2023-04-15T14:42:26.864Z,99033.61
2023-04-15T14:44:55.435Z,99033.23
2023-04-15T14:47:44.310Z,99032.59
2023-04-15T14:50:12.910Z,99035.59
2023-04-15T14:52:41.755Z,99034.35
2023-04-15T14:55:19.242Z,99039.20
2023-04-15T14:57:48.083Z,99044.65
2023-04-15T15:00:19.756Z,99043.80
2023-04-15T15:02:51.260Z,99048.73
2023-04-15T15:05:44.872Z,99044.66
2023-04-15T15:08:23.465Z,99046.83
2023-04-15T15:10:54.726Z,99051.88
2023-04-15T15:13:26.002Z,99052.46
2023-04-15T15:15:54.881Z,99052.80
2023-04-15T15:18:32.614Z,99053.89
2023-04-15T15:21:14.352Z,99054.11
2023-04-15T15:24:05.956Z,99058.38
2023-04-15T15:26:34.854Z,99058.23
2023-04-15T15:29:04.405Z,99058.59
2023-04-15T15:31:40.750Z,99064.36
2023-04-15T15:34:09.265Z,99066.60
2023-04-15T15:36:50.432Z,99071.07
2023-04-15T15:39:18.891Z,99072.76
2023-04-15T15:41:47.152Z,99074.65
2023-04-15T15:44:15.948Z,99079.34
2023-04-15T15:46:47.116Z,99080.55
2023-04-15T15:49:16.849Z,99081.93
2023-04-15T15:51:46.179Z,99085.02
2023-04-15T15:54:18.127Z,99087.29
2023-04-15T15:56:54.777Z,99091.16
2023-04-15T15:59:25.973Z,99096.27
2023-04-15T16:01:54.907Z,99097.30
2023-04-15T16:04:27.409Z,99102.76
2023-04-15T16:07:05.788Z,99106.23
2023-04-15T16:09:48.581Z,99110.37
2023-04-15T16:12:17.257Z,99111.83
2023-04-15T16:14:58.874Z,99114.74
2023-04-15T16:17:27.302Z,99114.27
2023-04-15T16:20:05.881Z,99117.77
2023-04-15T16:22:38.154Z,99121.02
2023-04-15T16:26:18.141Z,99122.42
2023-04-15T16:29:04.164Z,99127.38
2023-04-15T16:31:35.084Z,99125.98
2023-04-15T16:34:12.226Z,99129.48
2023-04-15T16:36:41.113Z,99128.89
2023-04-15T16:39:28.268Z,99131.34
2023-04-15T16:42:05.842Z,99137.52
2023-04-15T16:44:34.143Z,99139.06
2023-04-15T16:47:05.864Z,99141.52
2023-04-15T16:49:35.819Z,99139.36
2023-04-15T16:52:04.880Z,99142.44
2023-04-15T16:54:41.487Z,99145.65
2023-04-15T16:57:13.422Z,99152.73
2023-04-15T17:00:04.259Z,99155.83
2023-04-15T17:02:32.629Z,99158.97
2023-04-15T17:05:01.165Z,99159.29
2023-04-15T17:07:31.355Z,99161.98
2023-04-15T17:10:00.149Z,99165.03
2023-04-15T17:12:32.071Z,99169.58
2023-04-15T17:15:02.162Z,99168.84
2023-04-15T17:17:33.957Z,99177.98
2023-04-15T17:20:02.653Z,99186.01
2023-04-15T17:22:31.159Z,99192.06
2023-04-15T17:25:00.133Z,99195.71
2023-04-15T17:27:29.179Z,99197.64
2023-04-15T17:29:58.473Z,99202.77
2023-04-15T17:32:32.024Z,99202.56
2023-04-15T17:35:03.003Z,99206.89
2023-04-15T17:37:31.824Z,99208.12
2023-04-15T17:40:00.882Z,99212.33
2023-04-15T17:42:33.422Z,99213.45
2023-04-15T17:45:01.751Z,99218.53
2023-04-15T17:47:30.279Z,99226.63
2023-04-15T17:49:58.730Z,99227.20
2023-04-15T17:52:34.669Z,99230.43
2023-04-15T17:55:03.504Z,99231.48
2023-04-15T17:57:31.987Z,99232.67
2023-04-15T18:00:00.962Z,99233.92
2023-04-15T18:02:31.584Z,99235.09
2023-04-15T18:05:04.695Z,99238.45
2023-04-15T18:07:36.643Z,99237.71
2023-04-15T18:10:05.558Z,99240.68
2023-04-15T18:12:34.037Z,99249.91
2023-04-15T18:15:02.491Z,99255.05
2023-04-15T18:17:31.242Z,99260.97
2023-04-15T18:19:59.858Z,99265.34
2023-04-15T18:22:28.427Z,99269.86
2023-04-15T18:25:04.348Z,99269.67
2023-04-15T18:27:34.406Z,99275.85
2023-04-15T18:30:03.079Z,99275.67
2023-04-15T18:32:33.081Z,99282.76
2023-04-15T18:35:02.356Z,99286.73
2023-04-15T18:37:31.618Z,99291.98
2023-04-15T18:40:00.688Z,99296.77
2023-04-15T18:42:37.538Z,99300.56
2023-04-15T18:45:16.525Z,99301.45
2023-04-15T18:47:48.947Z,99303.86
2023-04-15T18:50:17.601Z,99304.19
2023-04-15T18:52:46.064Z,99303.25
2023-04-15T18:55:15.054Z,99303.09
2023-04-15T18:57:56.746Z,99306.25
2023-04-15T19:00:36.717Z,99307.61
2023-04-15T19:03:04.993Z,99311.11
2023-04-15T19:05:34.026Z,99314.54
2023-04-15T19:08:02.845Z,99316.09
2023-04-15T19:10:31.382Z,99328.63
2023-04-15T19:13:00.896Z,99336.27
2023-04-15T19:15:41.395Z,99343.04
2023-04-15T19:18:10.853Z,99348.74
2023-04-15T19:20:52.466Z,99350.08
2023-04-15T19:23:21.258Z,99355.52
2023-04-15T19:25:49.838Z,99355.55
2023-04-15T19:28:18.586Z,99359.52
2023-04-15T19:30:47.149Z,99359.13
2023-04-15T19:33:15.922Z,99359.98
2023-04-15T19:35:46.244Z,99363.94
2023-04-15T19:38:15.559Z,99362.45
2023-04-15T19:40:45.580Z,99366.83
2023-04-15T19:43:28.471Z,99366.01
2023-04-15T19:46:06.938Z,99366.81
2023-04-15T19:48:44.661Z,99371.44
2023-04-15T19:51:43.242Z,99367.95
2023-04-15T19:54:14.940Z,99371.61
2023-04-15T19:57:02.559Z,99376.16
2023-04-15T19:59:37.896Z,99376.66
2023-04-15T20:02:07.399Z,99372.98
2023-04-15T20:04:42.248Z,99371.48
2023-04-15T20:07:10.703Z,99373.21
2023-04-15T20:09:47.121Z,99378.98
2023-04-15T20:12:51.114Z,99382.36
2023-04-15T20:15:26.668Z,99388.08
2023-04-15T20:18:21.780Z,99392.52
2023-04-15T20:21:16.714Z,99394.23
2023-04-15T20:24:08.853Z,99393.03
2023-04-15T20:26:51.023Z,99398.09
2023-04-15T20:29:31.857Z,99396.88
2023-04-15T20:32:03.967Z,99401.27
2023-04-15T20:34:33.449Z,99404.20
2023-04-15T20:37:02.841Z,99403.86
2023-04-15T20:39:31.472Z,99405.32
2023-04-15T20:42:29.814Z,99407.68
2023-04-15T20:45:27.208Z,99403.93
2023-04-15T20:48:14.427Z,99406.07
2023-04-15T20:50:57.151Z,99404.23
2023-04-15T20:53:33.941Z,99406.67
2023-04-15T20:56:15.529Z,99411.10
2023-04-15T20:59:04.872Z,99410.02
2023-04-15T21:01:44.566Z,99410.31
2023-04-15T21:04:18.355Z,99415.80
2023-04-15T21:06:48.344Z,99419.21
2023-04-15T21:09:23.625Z,99419.29
2023-04-15T21:12:01.046Z,99420.36
2023-04-15T21:14:40.519Z,99417.65
2023-04-15T21:17:12.299Z,99418.24
2023-04-15T21:19:47.312Z,99416.65
2023-04-15T21:22:20.819Z,99419.71
2023-04-15T21:25:00.192Z,99419.73
2023-04-15T21:27:34.852Z,99422.13
2023-04-15T21:30:04.580Z,99429.14
2023-04-15T21:32:43.863Z,99433.04
2023-04-15T21:35:15.596Z,99436.72
2023-04-15T21:37:47.951Z,99443.91
2023-04-15T21:40:16.633Z,99444.88
2023-04-15T21:42:47.888Z,99448.23
2023-04-15T21:45:19.643Z,99443.59
2023-04-15T21:48:00.360Z,99448.65
2023-04-15T21:50:37.331Z,99449.21
2023-04-15T21:53:08.186Z,99450.67
2023-04-15T21:55:37.078Z,99451.23
2023-04-15T21:58:06.185Z,99454.93
2023-04-15T22:00:34.762Z,99453.05
2023-04-15T22:03:44.553Z,99454.41
2023-04-15T22:06:16.538Z,99461.00
2023-04-15T22:08:56.172Z,99461.40
2023-04-15T22:11:36.741Z,99468.92
2023-04-15T22:14:06.145Z,99471.30
2023-04-15T22:16:34.457Z,99473.93
2023-04-15T22:19:30.442Z,99474.34
2023-04-15T22:21:59.881Z,99483.12
2023-04-15T22:24:39.674Z,99484.02
2023-04-15T22:27:09.126Z,99490.16
2023-04-15T22:29:37.762Z,99491.57
2023-04-15T22:32:07.107Z,99495.41
2023-04-15T22:34:38.351Z,99496.77
2023-04-15T22:37:06.698Z,99501.19
2023-04-15T22:39:44.211Z,99505.28
2023-04-15T22:42:13.180Z,99507.96
2023-04-15T22:44:44.241Z,99512.84
2023-04-15T22:47:25.866Z,99522.21
2023-04-15T22:49:54.370Z,99522.75
2023-04-15T22:52:31.557Z,99529.44
2023-04-15T22:55:03.323Z,99529.77
2023-04-15T22:57:35.288Z,99534.05
2023-04-15T23:00:13.993Z,99534.23
2023-04-15T23:02:42.682Z,99536.54
2023-04-15T23:05:13.360Z,99535.48
2023-04-15T23:07:45.196Z,99536.15
2023-04-15T23:10:17.062Z,99538.33
2023-04-15T23:12:55.281Z,99537.98
2023-04-15T23:15:28.979Z,99539.04
2023-04-15T23:18:07.174Z,99538.83
2023-04-15T23:20:59.016Z,99541.73
2023-04-15T23:23:51.802Z,99541.59
2023-04-15T23:26:36.341Z,99540.90
2023-04-15T23:29:25.686Z,99538.50
2023-04-15T23:32:25.773Z,99539.61
2023-04-15T23:35:22.757Z,99536.22
2023-04-15T23:38:05.756Z,99539.23
2023-04-15T23:40:43.187Z,99541.02
2023-04-15T23:43:25.543Z,99544.20
2023-04-15T23:46:17.005Z,99546.32
2023-04-15T23:48:55.658Z,99546.14
2023-04-15T23:51:28.335Z,99549.27
2023-04-15T23:54:20.363Z,99553.59
2023-04-15T23:56:52.768Z,99554.79
2023-04-15T23:59:23.799Z,99553.30
